Time;durP1;ratioP1;P1;durP2;ratioP2;P2;SDS_P1;SDS_P2;PMS_P1;PMS_P2;Temp;Humidity;BMP_temperature;BMP_pressure;BME280_temperature;BME280_humidity;BME280_pressure;Samples;Min_cycle;Max_cycle;Signal;HPM_P1;HPM_P2
2022/07/27 00:01:17;;;;;;;1.30;0.70;;;;;;;18.08;56.25;100791.48;1640622;87;28270;-77
2022/07/27 00:03:44;;;;;;;2.27;0.82;;;;;;;18.07;56.30;100790.23;1639579;85;21132;-77
2022/07/27 00:06:11;;;;;;;1.22;0.68;;;;;;;18.02;56.35;100781.73;1656432;85;21480;-77
2022/07/27 00:08:38;;;;;;;1.98;0.80;;;;;;;17.99;56.44;100784.48;1637400;85;21551;-77
2022/07/27 00:11:05;;;;;;;1.98;0.70;;;;;;;17.98;56.44;100784.95;1621893;87;21180;-77
2022/07/27 00:13:31;;;;;;;;;;;;;;;17.96;56.46;100784.16;1617330;88;21776;-77
2022/07/27 00:15:57;;;;;;;2.00;0.60;;;;;;;17.94;56.74;100789.92;1634553;85;20508;-77
2022/07/27 00:18:23;;;;;;;2.58;1.15;;;;;;;17.90;56.52;100784.89;1614616;87;22011;-77
2022/07/27 00:20:49;;;;;;;2.97;1.20;;;;;;;17.88;56.56;100786.72;1609617;87;21575;-77
2022/07/27 00:23:16;;;;;;;1.73;0.90;;;;;;;17.83;56.62;100782.54;1616348;87;21564;-77
2022/07/27 00:25:42;;;;;;;4.03;0.83;;;;;;;17.83;56.69;100789.08;1612094;87;21588;-77
2022/07/27 00:28:08;;;;;;;2.07;0.80;;;;;;;17.81;56.72;100784.37;1585048;90;21031;-77
2022/07/27 00:30:34;;;;;;;2.20;1.40;;;;;;;17.76;56.72;100782.87;1584909;90;21724;-77
2022/07/27 00:33:00;;;;;;;1.98;0.85;;;;;;;17.70;56.85;100783.98;1595058;87;21098;-77
2022/07/27 00:35:26;;;;;;;3.33;1.10;;;;;;;17.69;56.90;100790.13;1614073;87;21927;-77
2022/07/27 00:37:52;;;;;;;3.50;0.77;;;;;;;17.66;56.93;100780.28;1610404;89;21034;-77
2022/07/27 00:40:18;;;;;;;7.00;0.97;;;;;;;17.60;57.00;100791.81;1622788;87;21667;-77
2022/07/27 00:42:46;;;;;;;3.75;1.00;;;;;;;17.59;57.10;100795.34;1607575;87;21543;-77
2022/07/27 00:45:12;;;;;;;4.13;0.73;;;;;;;17.58;57.15;100798.88;1613601;87;20936;-77
2022/07/27 00:47:38;;;;;;;1.40;0.78;;;;;;;17.59;57.21;100803.19;1610496;89;21127;-77
2022/07/27 00:50:06;;;;;;;3.20;0.63;;;;;;;17.61;57.23;100800.52;1610159;88;21599;-77
2022/07/27 00:52:33;;;;;;;2.87;0.78;;;;;;;17.60;57.30;100798.36;1594619;88;21107;-77
2022/07/27 00:55:00;;;;;;;3.30;0.80;;;;;;;17.59;57.32;100798.42;1610014;89;21115;-77
2022/07/27 00:57:27;;;;;;;2.67;0.82;;;;;;;17.52;57.40;100794.75;1609842;89;21531;-77
2022/07/27 00:59:53;;;;;;;2.50;0.80;;;;;;;17.52;57.50;100793.45;1610222;87;27900;-77
2022/07/27 01:02:20;;;;;;;2.70;0.80;;;;;;;17.52;57.52;100797.37;1611926;87;21575;-77
2022/07/27 01:04:46;;;;;;;2.50;0.80;;;;;;;17.51;57.59;100794.81;1610069;89;21838;-77
2022/07/27 01:07:13;;;;;;;1.97;0.50;;;;;;;17.51;57.63;100793.52;1630366;87;21678;-77
2022/07/27 01:09:57;;;;;;;1.63;0.80;;;;;;;17.49;57.67;100794.03;1639805;86;21123;-77
2022/07/27 01:12:30;;;;;;;1.72;0.80;;;;;;;17.49;57.74;100788.80;1639788;86;21658;-77
2022/07/27 01:14:58;;;;;;;2.22;0.82;;;;;;;17.49;57.77;100796.19;1634365;86;21076;-77
2022/07/27 01:17:29;;;;;;;3.98;1.10;;;;;;;17.47;57.80;100795.86;1626078;87;21144;-77
2022/07/27 01:19:54;;;;;;;4.50;1.70;;;;;;;17.46;57.88;100792.39;1635132;86;21075;-77
2022/07/27 01:22:20;;;;;;;2.40;1.53;;;;;;;17.42;57.96;100787.36;1630482;87;20980;-77
2022/07/27 01:24:49;;;;;;;2.65;1.47;;;;;;;17.40;58.01;100787.41;1630634;87;21163;-77
2022/07/27 01:27:15;;;;;;;3.72;2.20;;;;;;;17.36;58.02;100784.99;1636714;86;21016;-77
2022/07/27 01:29:42;;;;;;;2.72;1.77;;;;;;;17.30;58.12;100782.63;1635351;86;21087;-77
2022/07/27 01:32:08;;;;;;;5.10;1.30;;;;;;;17.28;58.17;100789.23;1628058;87;21524;-77
2022/07/27 01:34:35;;;;;;;3.35;1.70;;;;;;;17.28;58.29;100789.23;1626430;87;21120;-77
2022/07/27 01:37:03;;;;;;;3.72;1.60;;;;;;;17.33;58.28;100782.50;1635278;86;21729;-77
2022/07/27 01:39:30;;;;;;;3.20;1.57;;;;;;;17.32;58.30;100786.88;1637359;86;20984;-77
2022/07/27 01:41:57;;;;;;;5.03;1.35;;;;;;;17.30;58.35;100793.08;1647525;86;21454;-77
2022/07/27 01:44:23;;;;;;;3.05;1.40;;;;;;;17.30;58.44;100793.94;1642422;86;20925;-77
2022/07/27 01:46:49;;;;;;;4.33;1.55;;;;;;;17.29;58.46;100791.38;1636254;86;20961;-77
2022/07/27 01:49:16;;;;;;;3.90;1.43;;;;;;;17.27;58.52;100792.75;1631795;87;20913;-77
2022/07/27 01:51:42;;;;;;;4.10;1.05;;;;;;;17.29;58.57;100789.63;1609620;87;21143;-77
2022/07/27 01:54:09;;;;;;;1.82;0.78;;;;;;;17.30;58.57;100787.86;1638484;86;21043;-77
2022/07/27 01:56:35;;;;;;;3.60;1.30;;;;;;;17.26;58.69;100789.74;1635228;87;21116;-77
2022/07/27 01:59:02;;;;;;;1.20;0.93;;;;;;;17.28;58.71;100776.61;1633526;86;21080;-77
2022/07/27 02:01:28;;;;;;;2.47;1.07;;;;;;;17.31;58.75;100783.88;1634441;86;21146;-77
2022/07/27 02:03:54;;;;;;;5.37;1.27;;;;;;;17.32;58.77;100784.72;1635946;86;21051;-77
2022/07/27 02:06:20;;;;;;;1.43;0.93;;;;;;;17.35;58.85;100787.21;1612700;88;21061;-77
2022/07/27 02:08:46;;;;;;;5.00;1.20;;;;;;;17.35;58.90;100793.75;1634941;87;21076;-77
2022/07/27 02:13:56;;;;;;;2.83;1.42;;;;;;;17.37;58.96;100795.39;1632596;87;21682;-77
2022/07/27 02:16:22;;;;;;;2.70;1.37;;;;;;;17.37;59.01;100801.07;1647851;86;21079;-77
2022/07/27 02:18:49;;;;;;;3.53;1.33;;;;;;;17.35;59.06;100802.89;1632936;87;21135;-77
2022/07/27 02:21:15;;;;;;;4.90;1.73;;;;;;;17.32;59.12;100810.41;1630102;87;21052;-77
2022/07/27 02:23:43;;;;;;;5.65;2.27;;;;;;;17.32;59.16;100806.48;1639174;86;21061;-77
2022/07/27 02:26:09;;;;;;;2.08;1.17;;;;;;;17.31;59.21;100805.23;1639905;86;21455;-77
2022/07/27 02:28:36;;;;;;;2.20;1.10;;;;;;;17.32;59.26;100806.94;1632923;87;21079;-77
2022/07/27 02:31:02;;;;;;;3.80;1.02;;;;;;;17.34;59.30;100807.73;1629521;86;21162;-77
2022/07/27 02:33:28;;;;;;;3.62;1.27;;;;;;;17.32;59.33;100805.18;1632774;87;21182;-77
2022/07/27 02:35:54;;;;;;;1.92;1.02;;;;;;;17.29;59.37;100802.69;1632796;87;21103;-77
2022/07/27 02:38:20;;;;;;;2.37;0.90;;;;;;;17.29;59.45;100805.76;1632643;86;21072;-77
2022/07/27 02:40:46;;;;;;;1.70;0.90;;;;;;;17.32;59.52;100807.79;1626210;86;21754;-77
2022/07/27 02:43:13;;;;;;;2.67;1.20;;;;;;;17.35;59.53;100803.75;1627279;87;21458;-77
2022/07/27 02:45:39;;;;;;;3.07;1.10;;;;;;;17.38;59.58;100806.69;1632867;86;21124;-77
2022/07/27 02:48:05;;;;;;;4.53;1.23;;;;;;;17.40;59.56;100813.56;1632699;87;21056;-77
2022/07/27 02:50:31;;;;;;;4.15;1.10;;;;;;;17.42;59.53;100822.19;1632719;87;28276;-77
2022/07/27 02:52:57;;;;;;;2.83;1.03;;;;;;;17.43;59.61;100823.89;1637020;87;21085;-77
2022/07/27 02:55:24;;;;;;;2.57;1.00;;;;;;;17.45;59.60;100825.13;1587067;89;21180;-77
2022/07/27 02:57:50;;;;;;;3.52;0.95;;;;;;;17.46;59.57;100823.77;1632888;87;22228;-77
2022/07/27 03:00:16;;;;;;;3.77;1.40;;;;;;;17.41;59.54;100820.48;1632932;87;21083;-77
2022/07/27 03:02:48;;;;;;;4.08;1.10;;;;;;;17.40;59.59;100821.41;1632779;87;21128;-77
2022/07/27 03:05:14;;;;;;;5.15;0.98;;;;;;;17.42;59.60;100823.50;1632936;86;21065;-78
2022/07/27 03:07:40;;;;;;;3.90;1.43;;;;;;;17.44;59.54;100824.73;1632693;87;20904;-78
2022/07/27 03:10:08;;;;;;;5.37;1.30;;;;;;;17.44;59.52;100829.52;1632840;87;21070;-78
2022/07/27 03:12:34;;;;;;;3.77;1.40;;;;;;;17.45;59.53;100826.44;1632637;86;28389;-78
2022/07/27 03:15:00;;;;;;;5.17;1.43;;;;;;;17.45;59.48;100822.06;1633298;86;21095;-78
2022/07/27 03:17:26;;;;;;;4.70;1.40;;;;;;;17.45;59.45;100827.30;1633312;87;21803;-78
2022/07/27 03:19:52;;;;;;;4.15;1.25;;;;;;;17.45;59.48;100823.83;1633084;87;21095;-78
2022/07/27 03:22:18;;;;;;;4.20;1.47;;;;;;;17.45;59.45;100823.83;1615088;87;21138;-78
2022/07/27 03:24:45;;;;;;;3.43;1.10;;;;;;;17.40;59.40;100829.70;1632995;87;21659;-78
2022/07/27 03:27:12;;;;;;;5.12;1.20;;;;;;;17.37;59.39;100827.21;1632882;87;21071;-78
2022/07/27 03:29:38;;;;;;;5.70;1.42;;;;;;;17.36;59.48;100834.20;1633095;86;21119;-78
2022/07/27 03:32:04;;;;;;;7.50;1.20;;;;;;;17.37;59.48;100831.98;1631407;87;21095;-78
2022/07/27 03:34:30;;;;;;;6.25;1.82;;;;;;;17.39;59.46;100828.00;1633092;86;21107;-78
2022/07/27 03:36:56;;;;;;;3.87;1.53;;;;;;;17.39;59.46;100830.16;1633404;87;21146;-78
2022/07/27 03:39:23;;;;;;;5.45;1.27;;;;;;;17.40;59.46;100823.16;1632947;87;21012;-78
2022/07/27 03:41:49;;;;;;;6.17;1.57;;;;;;;17.43;59.47;100830.88;1639667;86;21027;-78
2022/07/27 03:44:15;;;;;;;6.33;1.60;;;;;;;17.44;59.45;100824.28;1633228;86;21047;-77
2022/07/27 03:46:41;;;;;;;3.17;1.50;;;;;;;17.46;59.47;100829.45;1632148;87;21127;-77
2022/07/27 03:49:07;;;;;;;4.30;1.65;;;;;;;17.45;59.49;100831.22;1633015;87;21095;-77
2022/07/27 03:51:33;;;;;;;5.00;1.60;;;;;;;17.46;59.50;100830.30;1633320;86;21095;-77
2022/07/27 03:53:59;;;;;;;7.80;1.77;;;;;;;17.47;59.47;100829.84;1633156;87;21582;-77
2022/07/27 03:56:25;;;;;;;4.47;1.67;;;;;;;17.49;59.49;100830.63;1632917;86;20948;-77
2022/07/27 03:58:51;;;;;;;5.70;1.30;;;;;;;17.52;59.50;100828.74;1607965;87;20998;-78
2022/07/27 04:01:17;;;;;;;3.30;1.50;;;;;;;17.52;59.50;100823.52;1607812;87;21151;-78
2022/07/27 04:03:43;;;;;;;3.30;1.40;;;;;;;17.52;59.50;100813.52;1610899;87;21044;-78
2022/07/27 04:06:09;;;;;;;4.83;1.53;;;;;;;17.54;59.53;100818.22;1613318;87;21163;-78
2022/07/27 04:08:35;;;;;;;5.07;1.67;;;;;;;17.56;59.55;100820.77;1601001;89;22607;-78
2022/07/27 04:11:01;;;;;;;8.00;1.67;;;;;;;17.57;59.50;100820.71;1605816;87;21087;-78
2022/07/27 04:13:27;;;;;;;7.03;2.08;;;;;;;17.52;59.55;100826.13;1620919;87;21101;-78
2022/07/27 04:15:56;;;;;;;8.15;1.32;;;;;;;17.52;59.62;100827.44;1608363;89;21160;-78
2022/07/27 04:18:21;;;;;;;8.93;2.08;;;;;;;17.59;59.67;100822.80;1608106;88;21330;-78
2022/07/27 04:20:47;;;;;;;7.17;2.10;;;;;;;17.64;59.63;100828.70;1608204;89;20965;-78
2022/07/27 04:23:14;;;;;;;;;;;;;;;17.69;59.60;100828.50;1612122;87;21136;-78
2022/07/27 04:25:40;;;;;;;6.33;1.97;;;;;;;17.67;59.55;100829.91;1608873;87;20241;-78
2022/07/27 04:28:06;;;;;;;4.13;1.80;;;;;;;17.70;59.52;100833.67;1614088;87;21564;-78
2022/07/27 04:30:32;;;;;;;4.80;1.63;;;;;;;17.77;59.50;100836.87;1617125;87;21093;-78
2022/07/27 04:32:58;;;;;;;5.90;2.13;;;;;;;17.80;59.47;100837.60;1612444;88;21134;-78
2022/07/27 04:35:25;;;;;;;7.03;2.05;;;;;;;17.82;59.40;100842.31;1654908;85;39095;-78
2022/07/27 04:37:52;;;;;;;6.35;1.75;;;;;;;17.84;59.37;100840.94;1641913;86;21072;-78
2022/07/27 04:40:18;;;;;;;9.23;2.17;;;;;;;17.84;59.31;100837.87;1636360;86;21087;-78
2022/07/27 04:42:44;;;;;;;8.30;2.10;;;;;;;17.88;59.31;100832.05;1637803;85;21146;-78
2022/07/27 04:45:10;;;;;;;4.53;1.87;;;;;;;17.89;59.18;100821.13;1635841;86;20933;-77
2022/07/27 04:47:37;;;;;;;9.40;1.85;;;;;;;17.89;59.18;100825.90;1635787;86;21107;-77
2022/07/27 04:50:04;;;;;;;7.53;1.83;;;;;;;17.91;59.11;100829.30;1635883;87;21118;-77
2022/07/27 04:52:30;;;;;;;10.28;1.85;;;;;;;17.95;59.08;100833.48;1628632;85;21076;-77
2022/07/27 04:54:56;;;;;;;4.23;1.53;;;;;;;17.96;59.00;100833.03;1635716;87;22386;-77
2022/07/27 04:57:22;;;;;;;6.20;1.70;;;;;;;17.96;58.96;100829.95;1635902;86;21083;-77
2022/07/27 04:59:48;;;;;;;4.47;1.57;;;;;;;17.99;58.95;100832.44;1635609;85;21511;-77
2022/07/27 05:02:14;;;;;;;5.37;1.67;;;;;;;17.98;58.85;100831.20;1634323;86;21128;-77
2022/07/27 05:04:40;;;;;;;4.93;1.67;;;;;;;17.98;58.89;100828.12;1628482;85;21122;-77
2022/07/27 05:07:06;;;;;;;6.20;1.60;;;;;;;18.04;58.86;100832.24;1636144;85;21612;-77
2022/07/27 05:09:33;;;;;;;5.73;1.70;;;;;;;18.07;58.79;100830.80;1635591;86;21099;-77
2022/07/27 05:11:59;;;;;;;6.42;1.60;;;;;;;18.10;58.68;100831.52;1616995;87;21128;-77
2022/07/27 05:14:25;;;;;;;6.90;1.57;;;;;;;18.14;58.66;100835.70;1610129;87;20996;-77
2022/07/27 05:16:51;;;;;;;7.20;1.50;;;;;;;18.20;58.58;100832.78;1613134;87;21102;-77
2022/07/27 05:19:17;;;;;;;6.15;1.35;;;;;;;18.28;58.58;100835.52;1628086;87;21071;-77
2022/07/27 05:21:44;;;;;;;5.05;1.40;;;;;;;18.40;58.50;100831.91;1619271;87;21063;-77
2022/07/27 05:24:10;;;;;;;4.30;1.47;;;;;;;18.51;58.43;100835.35;1609936;89;21064;-77
2022/07/27 05:26:37;;;;;;;6.50;1.53;;;;;;;18.63;58.40;100839.22;1611675;87;21127;-77
2022/07/27 05:29:03;;;;;;;;;;;;;;;18.70;58.24;100830.16;1610871;88;21877;-77
2022/07/27 05:31:29;;;;;;;4.55;1.12;;;;;;;18.88;57.95;100838.91;1624071;87;20210;-77
2022/07/27 05:33:55;;;;;;;5.93;1.50;;;;;;;18.95;58.05;100854.73;1612495;87;21169;-77
2022/07/27 05:36:22;;;;;;;5.07;1.20;;;;;;;18.95;57.89;100852.96;1619637;87;21438;-77
2022/07/27 05:38:48;;;;;;;5.73;1.57;;;;;;;18.93;57.87;100853.95;1626712;87;21107;-77
2022/07/27 05:41:14;;;;;;;4.43;1.30;;;;;;;18.94;57.77;100856.50;1625344;87;21150;-77
2022/07/27 05:43:40;;;;;;;7.92;1.52;;;;;;;19.00;57.74;100867.16;1595480;88;21097;-77
2022/07/27 05:46:06;;;;;;;5.07;1.27;;;;;;;18.96;57.54;100865.14;1561497;90;21154;-77
2022/07/27 05:48:32;;;;;;;5.60;1.27;;;;;;;18.94;57.47;100866.14;1572384;88;20880;-77
2022/07/27 05:50:58;;;;;;;5.83;1.43;;;;;;;18.97;57.39;100868.16;1613977;88;21111;-77
2022/07/27 05:53:25;;;;;;;4.50;1.07;;;;;;;18.98;57.29;100869.85;1614692;88;21122;-77
2022/07/27 05:55:51;;;;;;;5.03;1.40;;;;;;;18.92;57.19;100868.83;1628159;87;21158;-77
2022/07/27 05:58:17;;;;;;;6.03;1.37;;;;;;;18.92;57.09;100879.31;1624259;87;21131;-77
2022/07/27 06:00:43;;;;;;;7.50;1.23;;;;;;;18.92;57.02;100885.86;1597870;88;21029;-77
2022/07/27 06:03:09;;;;;;;4.73;1.50;;;;;;;18.94;56.95;100889.72;1595032;88;21101;-77
2022/07/27 06:05:35;;;;;;;6.97;1.37;;;;;;;18.94;56.84;100888.41;1595287;89;21097;-79
2022/07/27 06:08:10;;;;;;;8.03;1.50;;;;;;;18.94;56.71;100891.88;1589583;89;21043;-78
2022/07/27 06:10:39;;;;;;;4.30;1.10;;;;;;;18.94;56.65;100894.97;1604489;88;21047;-78
2022/07/27 06:13:08;;;;;;;5.28;1.22;;;;;;;18.93;56.51;100901.13;1606497;88;21051;-78
2022/07/27 06:15:35;;;;;;;7.00;1.50;;;;;;;18.95;56.45;100898.83;1638756;85;21086;-78
2022/07/27 06:18:03;;;;;;;6.83;1.85;;;;;;;18.97;56.35;100904.84;1638557;85;21134;-78
2022/07/27 06:20:30;;;;;;;5.17;1.07;;;;;;;19.03;56.21;100905.02;1640666;85;20987;-78
2022/07/27 06:22:59;;;;;;;2.72;1.10;;;;;;;19.03;56.06;100901.94;1626329;87;20967;-78
2022/07/27 06:25:28;;;;;;;3.92;1.10;;;;;;;19.08;55.98;100904.35;1640665;85;21127;-78
2022/07/27 06:27:54;;;;;;;9.40;1.35;;;;;;;19.19;55.90;100907.32;1639916;85;21087;-78
2022/07/27 06:30:21;;;;;;;7.20;1.27;;;;;;;19.43;55.90;100906.13;1640432;85;21130;-78
2022/07/27 06:32:48;;;;;;;2.58;1.10;;;;;;;19.90;55.82;100904.73;1646123;85;22115;-78
2022/07/27 06:35:14;;;;;;;2.53;1.03;;;;;;;20.41;55.77;100902.09;1638775;85;21091;-78
2022/07/27 06:37:42;;;;;;;8.65;1.20;;;;;;;20.97;55.37;100895.56;1637762;85;21593;-78
2022/07/27 06:40:13;;;;;;;3.95;1.12;;;;;;;21.58;55.41;100895.24;1638512;85;21087;-78
2022/07/27 06:42:41;;;;;;;5.45;1.07;;;;;;;22.06;54.93;100903.41;1639928;85;21651;-78
2022/07/27 06:45:07;;;;;;;;;;;;;;;22.27;54.61;100899.49;1645833;85;21083;-78
2022/07/27 06:47:33;;;;;;;6.15;1.27;;;;;;;22.53;53.93;100903.16;1640053;85;20128;-78
2022/07/27 06:50:00;;;;;;;4.90;1.00;;;;;;;22.80;54.38;100898.48;1640505;85;20992;-78
2022/07/27 06:52:26;;;;;;;3.73;0.90;;;;;;;23.19;54.16;100903.01;1645593;85;20915;-78
2022/07/27 06:54:52;;;;;;;5.37;0.90;;;;;;;23.67;53.92;100902.95;1647243;85;20948;-78
2022/07/27 06:57:18;;;;;;;1.70;0.87;;;;;;;24.05;53.65;100904.33;1643819;85;21419;-78
2022/07/27 06:59:44;;;;;;;2.15;0.95;;;;;;;24.35;53.02;100905.39;1610940;87;20917;-78
2022/07/27 07:02:10;;;;;;;3.17;1.10;;;;;;;24.51;52.50;100907.31;1593769;88;21009;-78
2022/07/27 07:04:36;;;;;;;4.55;1.22;;;;;;;24.62;52.23;100905.25;1603424;87;20942;-78
2022/07/27 07:07:02;;;;;;;7.53;0.80;;;;;;;24.78;52.18;100904.55;1603997;87;20977;-78
2022/07/27 07:09:29;;;;;;;2.95;0.93;;;;;;;25.01;51.95;100895.82;1604176;88;21015;-78
2022/07/27 07:11:56;;;;;;;3.98;0.75;;;;;;;25.24;51.49;100894.64;1612913;87;20965;-78
2022/07/27 07:14:22;;;;;;;6.47;0.95;;;;;;;25.66;51.33;100898.11;1614721;86;20952;-78
2022/07/27 07:16:48;;;;;;;2.30;0.82;;;;;;;26.08;50.90;100893.64;1611812;86;20980;-78
2022/07/27 07:19:15;;;;;;;2.17;0.80;;;;;;;26.66;50.43;100893.47;1612158;86;21543;-78
2022/07/27 07:21:41;;;;;;;;;;;;;;;26.82;49.80;100897.56;1619888;87;20939;-78
2022/07/27 07:24:07;;;;;;;3.83;1.15;;;;;;;27.00;49.00;100897.45;1638601;85;20129;-78
2022/07/27 07:26:35;;;;;;;2.20;0.95;;;;;;;27.34;49.61;100904.84;1652141;85;20939;-78
2022/07/27 07:29:01;;;;;;;3.08;1.50;;;;;;;27.78;49.17;100904.31;1652910;85;20968;-78
2022/07/27 07:31:27;;;;;;;6.55;1.05;;;;;;;28.17;48.66;100904.08;1610488;87;20994;-78
2022/07/27 07:33:53;;;;;;;3.65;1.12;;;;;;;28.65;48.17;100895.86;1597028;87;20977;-78
2022/07/27 07:36:19;;;;;;;3.10;0.93;;;;;;;28.92;47.72;100895.29;1641436;85;20982;-78
2022/07/27 07:38:46;;;;;;;2.58;0.90;;;;;;;28.81;46.95;100906.02;1634126;85;20934;-78
2022/07/27 07:41:12;;;;;;;;;;;;;;;28.79;46.08;100901.80;1646528;85;21575;-78
2022/07/27 07:43:39;;;;;;;;;;;;;;;28.60;45.23;100899.41;1617399;87;20160;-77
2022/07/27 07:46:05;;;;;;;;;;;;;;;28.64;45.75;100898.17;1617278;86;20130;-77
2022/07/27 07:48:31;;;;;;;3.22;0.70;;;;;;;28.63;45.68;100911.61;1625382;86;20121;-77
2022/07/27 07:50:58;;;;;;;2.67;0.80;;;;;;;28.67;45.35;100906.38;1621186;87;26803;-77
2022/07/27 07:53:23;;;;;;;4.40;1.32;;;;;;;28.89;44.68;100907.55;1625323;87;20992;-77
2022/07/27 07:55:57;;;;;;;1.92;0.80;;;;;;;28.95;43.92;100910.16;1595151;87;20937;-77
2022/07/27 07:58:23;;;;;;;1.47;0.90;;;;;;;28.98;43.47;100916.05;1616786;87;21365;-77
2022/07/27 08:00:49;;;;;;;2.22;0.80;;;;;;;29.11;42.82;100901.16;1641450;85;20988;-77
2022/07/27 08:03:16;;;;;;;4.62;0.90;;;;;;;29.08;42.45;100908.58;1643467;85;20950;-77
2022/07/27 08:05:42;;;;;;;4.22;0.82;;;;;;;29.34;42.09;100912.38;1641059;85;20972;-77
2022/07/27 08:08:08;;;;;;;1.60;0.65;;;;;;;29.35;41.34;100907.41;1644000;85;21268;-77
2022/07/27 08:10:35;;;;;;;3.55;0.90;;;;;;;29.35;41.03;100904.75;1634072;85;20930;-77
2022/07/27 08:13:01;;;;;;;2.08;1.00;;;;;;;29.28;40.18;100908.94;1586788;88;20993;-77
2022/07/27 08:15:29;;;;;;;2.15;0.80;;;;;;;29.34;40.33;100909.72;1616483;87;21606;-77
2022/07/27 08:17:55;;;;;;;3.60;0.82;;;;;;;29.40;39.85;100904.33;1610890;87;20881;-77
2022/07/27 08:20:24;;;;;;;3.42;1.12;;;;;;;29.45;39.67;100909.62;1636678;86;20957;-77
2022/07/27 08:22:49;;;;;;;3.98;0.90;;;;;;;29.67;38.99;100908.98;1637595;86;20889;-77
2022/07/27 08:25:15;;;;;;;3.02;0.93;;;;;;;29.76;38.69;100915.64;1631080;86;20996;-77
2022/07/27 08:27:42;;;;;;;1.45;1.00;;;;;;;29.43;37.60;100908.08;1633169;86;21492;-77
2022/07/27 08:30:10;;;;;;;3.55;0.90;;;;;;;28.96;38.02;100911.34;1629844;86;21405;-77
2022/07/27 08:32:57;;;;;;;1.75;0.60;;;;;;;29.22;37.85;100909.48;1590679;88;21066;-77
2022/07/27 08:35:23;;;;;;;3.72;0.93;;;;;;;29.39;37.14;100911.48;1632645;86;21567;-77
2022/07/27 08:37:49;;;;;;;2.77;0.72;;;;;;;29.43;36.93;100917.41;1632848;86;21519;-77
2022/07/27 08:40:16;;;;;;;1.07;0.70;;;;;;;29.10;36.59;100922.11;1632448;86;20952;-77
2022/07/27 08:42:42;;;;;;;4.65;0.82;;;;;;;28.92;36.57;100912.59;1635291;86;20942;-77
2022/07/27 08:45:18;;;;;;;1.98;0.78;;;;;;;28.48;36.32;100915.63;1633059;86;21012;-76
2022/07/27 08:47:45;;;;;;;3.90;0.85;;;;;;;27.92;35.84;100924.79;1633036;86;20950;-76
2022/07/27 08:50:23;;;;;;;1.30;0.70;;;;;;;27.45;35.96;100915.92;1635493;86;21790;-76
2022/07/27 08:53:04;;;;;;;2.17;0.80;;;;;;;27.55;35.95;100912.38;1613490;87;20903;-76
2022/07/27 08:55:34;;;;;;;2.58;0.85;;;;;;;27.66;35.65;100914.16;1615929;87;21543;-76
2022/07/27 08:58:01;;;;;;;2.05;0.80;;;;;;;27.63;35.49;100907.28;1588728;88;20984;-76
2022/07/27 09:00:28;;;;;;;3.12;1.12;;;;;;;27.38;35.02;100919.56;1600340;87;20953;-76
2022/07/27 09:02:54;;;;;;;;;;;;;;;27.01;34.95;100924.36;1614558;87;20956;-76
2022/07/27 09:05:22;;;;;;;2.92;0.70;;;;;;;26.37;34.73;100923.62;1608985;87;20441;-76
2022/07/27 09:07:48;;;;;;;2.05;0.60;;;;;;;25.90;34.87;100931.68;1618616;87;20935;-76
2022/07/27 09:10:32;;;;;;;1.77;0.70;;;;;;;25.53;34.70;100918.48;1580827;87;21682;-76
2022/07/27 09:13:03;;;;;;;1.65;0.85;;;;;;;25.23;34.74;100915.45;1623521;87;21556;-76
2022/07/27 09:15:29;;;;;;;1.40;0.78;;;;;;;24.99;34.57;100911.44;1624898;87;21830;-76
2022/07/27 09:17:55;;;;;;;3.77;0.60;;;;;;;24.88;34.61;100919.29;1629026;86;20975;-76
2022/07/27 09:20:21;;;;;;;3.42;0.60;;;;;;;24.73;34.47;100917.25;1629146;87;21623;-76
2022/07/27 09:22:55;;;;;;;1.27;0.65;;;;;;;24.54;34.29;100924.77;1629775;86;21515;-76
2022/07/27 09:25:29;;;;;;;2.25;0.70;;;;;;;24.28;34.32;100932.72;1596576;86;20976;-76
2022/07/27 09:27:58;;;;;;;1.25;0.55;;;;;;;24.06;34.28;100922.72;1591830;88;21519;-76
2022/07/27 09:30:30;;;;;;;3.83;0.88;;;;;;;23.77;34.34;100876.30;1641495;85;21460;-76
2022/07/27 09:33:03;;;;;;;4.08;1.00;;;;;;;23.80;34.26;100909.59;1639155;85;21397;-76
2022/07/27 09:35:33;;;;;;;1.37;0.60;;;;;;;23.69;34.22;100909.82;1641156;85;21465;-76
2022/07/27 09:38:20;;;;;;;2.00;0.78;;;;;;;23.60;34.26;100914.86;1644279;85;21507;-76
2022/07/27 09:40:59;;;;;;;2.50;0.85;;;;;;;23.47;34.30;100911.29;1638182;85;21484;-76
2022/07/27 09:43:25;;;;;;;3.62;0.80;;;;;;;23.47;34.36;100916.09;1640780;85;21548;-76
2022/07/27 09:45:52;;;;;;;4.75;0.85;;;;;;;23.45;34.36;100921.47;1642169;85;21658;-76
2022/07/27 09:48:21;;;;;;;1.92;0.80;;;;;;;23.37;34.38;100925.58;1640623;85;20960;-76
2022/07/27 09:51:01;;;;;;;4.10;0.95;;;;;;;23.28;34.31;100919.09;1611042;87;21416;-76
2022/07/27 09:53:33;;;;;;;1.02;0.60;;;;;;;23.16;34.33;100920.35;1612710;86;21032;-76
2022/07/27 09:56:09;;;;;;;1.40;0.70;;;;;;;23.00;34.35;100924.42;1622206;86;21364;-76
2022/07/27 09:58:55;;;;;;;1.40;0.65;;;;;;;22.94;34.37;100918.22;1620202;86;20919;-76
2022/07/27 10:01:26;;;;;;;1.83;0.70;;;;;;;22.89;34.45;100909.27;1592922;88;21594;-76
2022/07/27 10:03:56;;;;;;;2.55;0.80;;;;;;;22.88;34.43;100910.21;1618215;87;21000;-76
2022/07/27 10:06:23;;;;;;;2.83;0.70;;;;;;;22.83;34.45;100909.69;1625520;86;20976;-76
2022/07/27 10:08:51;;;;;;;;;;;;;;;22.88;34.45;100910.21;1637513;85;21420;-76
2022/07/27 10:11:19;;;;;;;3.20;0.85;;;;;;;22.88;34.46;100913.32;1635002;85;20159;-76
2022/07/27 10:13:47;;;;;;;2.08;0.68;;;;;;;22.84;34.50;100915.34;1632247;86;20902;-76
2022/07/27 10:16:18;;;;;;;3.60;0.80;;;;;;;22.88;34.49;100904.94;1621087;87;20977;-76
2022/07/27 10:19:07;;;;;;;2.42;0.70;;;;;;;22.88;34.45;100916.81;1611841;87;20934;-78
2022/07/27 10:21:37;;;;;;;1.47;0.65;;;;;;;22.77;34.47;100925.85;1610795;87;20924;-77
2022/07/27 10:24:08;;;;;;;1.55;0.50;;;;;;;22.68;34.51;100924.63;1612913;87;20934;-77
2022/07/27 10:26:40;;;;;;;1.52;0.47;;;;;;;22.55;34.48;100921.05;1632655;86;20973;-76
2022/07/27 10:29:19;;;;;;;2.80;0.65;;;;;;;22.54;34.61;100918.50;1638367;86;20973;-76
2022/07/27 10:31:58;;;;;;;1.22;0.70;;;;;;;22.64;34.65;100918.32;1626093;86;20940;-76
2022/07/27 10:34:43;;;;;;;2.40;0.57;;;;;;;22.70;34.60;100916.62;1647378;86;20970;-78
2022/07/27 10:37:26;;;;;;;2.25;0.78;;;;;;;22.71;34.57;100910.41;1640743;86;21086;-79
2022/07/27 10:42:44;;;;;;;3.67;0.60;;;;;;;22.86;34.65;100912.13;1635447;86;21346;-79
2022/07/27 10:45:16;;;;;;;3.45;0.60;;;;;;;22.85;34.64;100925.41;1632808;86;21102;-78
2022/07/27 10:47:51;;;;;;;2.08;0.70;;;;;;;22.80;34.71;100926.16;1635254;86;21154;-79
2022/07/27 10:50:22;;;;;;;2.87;0.60;;;;;;;22.76;34.73;100926.32;1611358;87;21067;-79
2022/07/27 10:52:59;;;;;;;2.35;1.50;;;;;;;22.66;34.77;100919.08;1611023;87;21120;-79
2022/07/27 10:55:36;;;;;;;1.85;0.62;;;;;;;22.68;34.91;100923.78;1629963;86;21183;-80
2022/07/27 10:58:18;;;;;;;1.57;0.68;;;;;;;22.71;34.74;100928.39;1631316;86;21539;-79
2022/07/27 11:00:56;;;;;;;2.58;0.93;;;;;;;22.53;34.67;100920.76;1625479;86;21151;-79
2022/07/27 11:03:33;;;;;;;2.47;0.75;;;;;;;22.46;34.86;100921.13;1635464;86;21622;-79
2022/07/27 11:06:06;;;;;;;1.60;0.75;;;;;;;22.55;34.86;100926.78;1631643;86;21131;-79
2022/07/27 11:08:36;;;;;;;1.70;0.75;;;;;;;22.60;34.86;100926.03;1632489;86;21137;-79
2022/07/27 11:11:04;;;;;;;2.08;0.70;;;;;;;22.58;34.84;100926.60;1634605;85;21127;-79
2022/07/27 11:13:32;;;;;;;2.45;0.88;;;;;;;22.59;34.90;100926.51;1639679;85;21093;-79
2022/07/27 11:16:02;;;;;;;1.85;0.75;;;;;;;22.51;34.89;100917.37;1645289;85;21080;-79
2022/07/27 11:18:31;;;;;;;2.12;0.70;;;;;;;22.44;34.93;100913.79;1600972;88;21713;-79
2022/07/27 11:21:29;;;;;;;3.00;0.70;;;;;;;22.36;34.91;100910.77;1622523;86;21106;-79
2022/07/27 11:24:05;;;;;;;1.85;1.00;;;;;;;22.33;35.05;100908.34;1626559;85;21130;-79
2022/07/27 11:26:43;;;;;;;1.77;0.60;;;;;;;22.38;34.97;100908.04;1642888;85;21073;-79
2022/07/27 11:29:12;;;;;;;1.15;0.60;;;;;;;22.45;34.92;100900.14;1644149;85;21098;-79
2022/07/27 11:31:40;;;;;;;1.25;0.50;;;;;;;22.54;34.94;100894.78;1612777;86;21224;-78
2022/07/27 11:34:07;;;;;;;1.12;0.50;;;;;;;22.67;34.93;100903.63;1644221;85;21519;-78
2022/07/27 11:36:52;;;;;;;1.70;0.35;;;;;;;22.75;34.94;100905.33;1648154;85;21606;-78